createdAt,value
2023-05-19T00:00:00.700Z,100817.78
2023-05-19T00:00:13.697Z,100816.13
2023-05-19T00:00:25.950Z,100815.91
2023-05-19T00:00:38.286Z,100814.28
2023-05-19T00:00:51.060Z,100819.81
2023-05-19T00:01:03.495Z,100816.31
2023-05-19T00:01:15.849Z,100811.13
2023-05-19T00:01:28.354Z,100811.94
2023-05-19T00:01:40.734Z,100812.81
2023-05-19T00:01:53.214Z,100814.84
2023-05-19T00:02:05.651Z,100812.16
2023-05-19T00:02:18.053Z,100810.31
2023-05-19T00:02:30.686Z,100817.53
2023-05-19T00:02:43.070Z,100811.31
2023-05-19T00:02:55.328Z,100812.97
2023-05-19T00:03:07.774Z,100816.66
2023-05-19T00:03:20.423Z,100817.69
2023-05-19T00:03:33.157Z,100815.84
2023-05-19T00:03:52.165Z,100814.19
2023-05-19T00:04:04.614Z,100808.19
2023-05-19T00:04:17.221Z,100813.38
2023-05-19T00:04:29.716Z,100815.19
2023-05-19T00:04:41.888Z,100817.88
2023-05-19T00:04:54.374Z,100815.19
2023-05-19T00:05:07.316Z,100813.38
2023-05-19T00:05:19.839Z,100808.19
2023-05-19T00:05:32.338Z,100817.03
2023-05-19T00:05:45.176Z,100809.00
2023-05-19T00:05:58.457Z,100811.69
2023-05-19T00:06:10.556Z,100821.59
2023-05-19T00:06:24.261Z,100814.38
2023-05-19T00:06:38.100Z,100812.72
2023-05-19T00:06:51.126Z,100814.38
2023-05-19T00:07:03.843Z,100817.22
2023-05-19T00:07:18.451Z,100819.72
2023-05-19T00:07:31.717Z,100810.03
2023-05-19T00:07:44.447Z,100815.41
2023-05-19T00:07:59.459Z,100813.72
2023-05-19T00:08:12.027Z,100813.53
2023-05-19T00:08:24.297Z,100816.22
2023-05-19T00:08:38.948Z,100810.88
2023-05-19T00:08:56.893Z,100813.53
2023-05-19T00:09:10.386Z,100817.88
2023-05-19T00:09:22.787Z,100809.00
2023-05-19T00:09:34.995Z,100810.88
2023-05-19T00:09:47.449Z,100809.00
2023-05-19T00:09:59.992Z,100818.72
2023-05-19T00:10:12.896Z,100814.19
2023-05-19T00:10:25.473Z,100809.66
2023-05-19T00:10:38.382Z,100817.69
2023-05-19T00:10:50.798Z,100820.38
2023-05-19T00:11:03.070Z,100819.34
2023-05-19T00:11:15.352Z,100812.16
2023-05-19T00:11:28.354Z,100813.97
2023-05-19T00:11:40.607Z,100816.66
2023-05-19T00:11:53.004Z,100817.53
2023-05-19T00:12:05.590Z,100821.03
2023-05-19T00:12:18.040Z,100817.53
2023-05-19T00:12:30.258Z,100817.31
2023-05-19T00:12:43.432Z,100818.34
2023-05-19T00:12:55.598Z,100819.16
2023-05-19T00:13:08.243Z,100815.84
2023-05-19T00:13:21.510Z,100825.34
2023-05-19T00:13:33.907Z,100819.16
2023-05-19T00:13:46.571Z,100826.38
2023-05-19T00:13:59.976Z,100821.84
2023-05-19T00:14:12.661Z,100819.16
2023-05-19T00:14:24.951Z,100821.03
2023-05-19T00:14:37.183Z,100816.66
2023-05-19T00:14:49.404Z,100830.69
2023-05-19T00:15:01.864Z,100820.19
2023-05-19T00:15:14.625Z,100818.34
2023-05-19T00:15:27.197Z,100819.16
2023-05-19T00:15:39.575Z,100815.84
2023-05-19T00:15:51.957Z,100816.50
2023-05-19T00:16:04.435Z,100815.66
2023-05-19T00:16:17.105Z,100818.34
2023-05-19T00:16:30.629Z,100822.88
2023-05-19T00:16:42.997Z,100820.19
2023-05-19T00:16:55.139Z,100825.72
2023-05-19T00:17:07.798Z,100813.81
2023-05-19T00:17:20.075Z,100822.88
2023-05-19T00:17:32.404Z,100819.16
2023-05-19T00:17:44.193Z,100816.50
2023-05-19T00:17:56.099Z,100822.66
2023-05-19T00:18:07.909Z,100825.56
2023-05-19T00:18:19.913Z,100827.19
2023-05-19T00:18:31.709Z,100821.84
2023-05-19T00:18:43.511Z,100820.00
2023-05-19T00:18:55.561Z,100824.53
2023-05-19T00:19:07.478Z,100822.66
2023-05-19T00:19:19.364Z,100830.69
2023-05-19T00:19:31.125Z,100826.19
2023-05-19T00:19:43.047Z,100821.84
2023-05-19T00:19:54.913Z,100821.84
2023-05-19T00:20:08.012Z,100820.00
2023-05-19T00:20:19.908Z,100826.38
2023-05-19T00:20:32.038Z,100829.88
2023-05-19T00:20:44.134Z,100823.53
2023-05-19T00:20:55.958Z,100826.19
2023-05-19T00:21:07.874Z,100828.22
2023-05-19T00:21:20.064Z,100825.56
2023-05-19T00:21:32.279Z,100820.84
2023-05-19T00:21:45.472Z,100825.34
2023-05-19T00:21:57.258Z,100828.88
2023-05-19T00:22:09.034Z,100818.34
2023-05-19T00:22:20.841Z,100824.53
2023-05-19T00:22:32.823Z,100824.53
2023-05-19T00:22:44.703Z,100829.88
2023-05-19T00:22:56.666Z,100829.88
2023-05-19T00:23:08.504Z,100825.34
2023-05-19T00:23:20.242Z,100823.69
2023-05-19T00:23:32.029Z,100824.53
2023-05-19T00:23:44.003Z,100824.53
2023-05-19T00:23:56.164Z,100823.69
2023-05-19T00:24:08.179Z,100825.56
2023-05-19T00:24:20.038Z,100824.53
2023-05-19T00:24:31.984Z,100821.19
2023-05-19T00:24:43.864Z,100821.03
2023-05-19T00:24:55.734Z,100818.53
2023-05-19T00:25:08.277Z,100822.88
2023-05-19T00:25:20.086Z,100821.03
2023-05-19T00:25:32.094Z,100822.88
2023-05-19T00:25:43.908Z,100822.03
2023-05-19T00:25:55.703Z,100816.50
2023-05-19T00:26:07.650Z,100822.88
2023-05-19T00:26:19.562Z,100827.19
2023-05-19T00:26:40.324Z,100820.19
2023-05-19T00:26:52.069Z,100819.16
2023-05-19T00:27:04.407Z,100819.16
2023-05-19T00:27:16.239Z,100822.66
2023-05-19T00:27:28.038Z,100821.84
2023-05-19T00:27:39.992Z,100820.00
2023-05-19T00:27:52.845Z,100818.16
2023-05-19T00:28:04.979Z,100819.81
2023-05-19T00:28:16.796Z,100819.81
2023-05-19T00:28:28.771Z,100815.66
2023-05-19T00:28:40.554Z,100817.31
2023-05-19T00:28:53.191Z,100817.31
2023-05-19T00:29:05.625Z,100815.66
2023-05-19T00:29:17.611Z,100806.81
2023-05-19T00:29:29.592Z,100822.88
2023-05-19T00:29:41.614Z,100814.84
2023-05-19T00:29:53.550Z,100805.94
2023-05-19T00:30:07.071Z,100813.16
2023-05-19T00:30:18.916Z,100812.34
2023-05-19T00:30:31.207Z,100808.84
2023-05-19T00:30:43.482Z,100810.69
2023-05-19T00:30:55.406Z,100808.84
2023-05-19T00:31:07.574Z,100817.88
2023-05-19T00:31:19.471Z,100808.84
2023-05-19T00:31:31.406Z,100809.00
2023-05-19T00:31:43.267Z,100808.00
2023-05-19T00:31:56.507Z,100812.50
2023-05-19T00:32:08.456Z,100808.19
2023-05-19T00:32:20.403Z,100807.38
2023-05-19T00:32:32.345Z,100810.88
2023-05-19T00:32:44.401Z,100807.72
2023-05-19T00:32:56.651Z,100802.19
2023-05-19T00:33:08.644Z,100807.53
2023-05-19T00:33:20.578Z,100805.91
2023-05-19T00:33:32.544Z,100812.91
2023-05-19T00:33:45.002Z,100807.72
2023-05-19T00:33:56.896Z,100805.03
2023-05-19T00:34:08.723Z,100806.91
2023-05-19T00:34:20.513Z,100812.25
2023-05-19T00:34:32.943Z,100804.22
2023-05-19T00:34:44.793Z,100808.75
2023-05-19T00:34:56.643Z,100810.59
2023-05-19T00:35:09.140Z,100809.56
2023-05-19T00:35:21.234Z,100804.22
2023-05-19T00:35:33.298Z,100804.22
2023-05-19T00:35:45.188Z,100805.25
2023-05-19T00:35:57.107Z,100807.94
2023-05-19T00:36:09.534Z,100807.94
2023-05-19T00:36:21.331Z,100801.72
2023-05-19T00:36:33.165Z,100802.56
2023-05-19T00:36:46.390Z,100814.28
2023-05-19T00:36:59.080Z,100809.75
2023-05-19T00:37:10.930Z,100811.81
2023-05-19T00:37:22.828Z,100807.63
2023-05-19T00:37:34.605Z,100803.97
2023-05-19T00:37:46.438Z,100806.63
2023-05-19T00:37:58.204Z,100799.59
2023-05-19T00:38:10.043Z,100802.28
2023-05-19T00:38:21.814Z,100801.47
2023-05-19T00:38:35.897Z,100801.47
2023-05-19T00:38:47.676Z,100806.00
2023-05-19T00:38:59.467Z,100798.97
2023-05-19T00:39:11.273Z,100803.47
2023-05-19T00:39:23.107Z,100803.47
2023-05-19T00:39:35.090Z,100804.34
2023-05-19T00:39:46.864Z,100807.84
2023-05-19T00:39:58.583Z,100802.47
2023-05-19T00:40:10.809Z,100804.34
2023-05-19T00:40:24.549Z,100801.84
2023-05-19T00:40:36.492Z,100804.50
2023-05-19T00:40:48.359Z,100804.50
2023-05-19T00:41:00.849Z,100797.31
2023-05-19T00:41:12.728Z,100799.16
2023-05-19T00:41:24.991Z,100806.38
2023-05-19T00:41:37.082Z,100802.84
2023-05-19T00:41:48.821Z,100797.47
2023-05-19T00:42:00.783Z,100804.69
2023-05-19T00:42:12.780Z,100801.19
2023-05-19T00:42:24.664Z,100802.00
2023-05-19T00:42:36.534Z,100800.38
2023-05-19T00:42:48.368Z,100801.03
2023-05-19T00:43:00.311Z,100801.03
2023-05-19T00:43:12.579Z,100799.34
2023-05-19T00:43:24.491Z,100800.16
2023-05-19T00:43:36.497Z,100800.38
2023-05-19T00:43:48.444Z,100807.53
2023-05-19T00:44:19.150Z,100799.72
2023-05-19T00:44:31.325Z,100799.72
2023-05-19T00:44:43.179Z,100799.91
2023-05-19T00:44:55.278Z,100805.06
2023-05-19T00:45:08.416Z,100801.56
2023-05-19T00:45:20.234Z,100804.25
2023-05-19T00:45:32.925Z,100806.06
2023-05-19T00:45:44.797Z,100800.72
2023-05-19T00:45:57.149Z,100795.56
2023-05-19T00:46:09.202Z,100797.22
2023-05-19T00:46:21.100Z,100799.91
2023-05-19T00:46:33.073Z,100798.03
2023-05-19T00:46:45.297Z,100793.06
2023-05-19T00:46:57.788Z,100800.06
2023-05-19T00:47:09.721Z,100800.94
2023-05-19T00:47:21.826Z,100801.09
2023-05-19T00:47:34.196Z,100801.09
2023-05-19T00:47:46.331Z,100791.59
2023-05-19T00:47:58.350Z,100807.50
2023-05-19T00:48:10.734Z,100802.31
2023-05-19T00:48:22.908Z,100801.47
2023-05-19T00:48:34.800Z,100803.13
2023-05-19T00:48:46.727Z,100799.63
2023-05-19T00:48:58.652Z,100800.63
2023-05-19T00:49:10.459Z,100793.44
2023-05-19T00:49:22.233Z,100797.94
2023-05-19T00:49:35.355Z,100802.47
2023-05-19T00:49:47.201Z,100798.16
2023-05-19T00:49:59.392Z,100806.19
2023-05-19T00:50:11.372Z,100797.34
2023-05-19T00:50:23.875Z,100802.69
2023-05-19T00:50:36.388Z,100798.16
2023-05-19T00:50:49.132Z,100795.66
2023-05-19T00:51:01.255Z,100806.38
2023-05-19T00:51:14.123Z,100797.50
2023-05-19T00:51:28.139Z,100793.16
2023-05-19T00:51:41.096Z,100793.16
2023-05-19T00:51:55.634Z,100802.03
2023-05-19T00:52:07.613Z,100799.38
2023-05-19T00:52:19.645Z,100795.00
2023-05-19T00:52:31.537Z,100800.38
2023-05-19T00:52:43.525Z,100801.41
2023-05-19T00:52:55.663Z,100792.34
2023-05-19T00:53:07.953Z,100798.72
2023-05-19T00:53:20.606Z,100797.91
2023-05-19T00:53:34.070Z,100802.22
2023-05-19T00:53:47.907Z,100796.88
2023-05-19T00:53:59.818Z,100795.22
2023-05-19T00:54:11.637Z,100792.53
2023-05-19T00:54:24.126Z,100796.88
2023-05-19T00:54:36.320Z,100795.22
2023-05-19T00:54:49.471Z,100797.91
2023-05-19T00:55:01.396Z,100793.53
2023-05-19T00:55:13.506Z,100803.25
2023-05-19T00:55:31.515Z,100787.38
2023-05-19T00:55:44.377Z,100792.72
2023-05-19T00:55:56.830Z,100793.53
2023-05-19T00:56:08.817Z,100786.72
2023-05-19T00:56:20.973Z,100799.06
2023-05-19T00:56:33.264Z,100795.56
2023-05-19T00:56:45.444Z,100798.25
2023-05-19T00:56:59.482Z,100799.28
2023-05-19T00:57:11.890Z,100793.91
2023-05-19T00:57:23.910Z,100791.25
2023-05-19T00:57:36.538Z,100798.91
2023-05-19T00:57:49.821Z,100796.59
2023-05-19T00:58:04.396Z,100794.75
2023-05-19T00:58:16.987Z,100801.13
2023-05-19T00:58:30.519Z,100794.09
2023-05-19T00:58:42.773Z,100791.41
2023-05-19T00:58:55.143Z,100794.09
2023-05-19T00:59:08.267Z,100795.78
2023-05-19T00:59:20.116Z,100798.63
2023-05-19T00:59:31.995Z,100791.41
2023-05-19T00:59:43.886Z,100789.13
2023-05-19T00:59:55.900Z,100786.88
2023-05-19T01:00:09.327Z,100791.41
2023-05-19T01:00:21.628Z,100795.94
2023-05-19T01:00:34.447Z,100792.44
2023-05-19T01:00:46.608Z,100790.94
2023-05-19T01:01:05.034Z,100793.44
2023-05-19T01:01:17.867Z,100790.78
2023-05-19T01:01:29.884Z,100795.13
2023-05-19T01:01:41.948Z,100788.91
2023-05-19T01:01:54.174Z,100797.97
2023-05-19T01:02:06.477Z,100792.44
2023-05-19T01:02:18.350Z,100792.44
2023-05-19T01:02:30.485Z,100795.13
2023-05-19T01:02:43.147Z,100796.13
2023-05-19T01:02:55.282Z,100795.13
2023-05-19T01:03:07.436Z,100793.44
2023-05-19T01:03:19.625Z,100799.63
2023-05-19T01:03:32.539Z,100790.78
2023-05-19T01:03:45.056Z,100797.16
2023-05-19T01:03:57.410Z,100797.97
2023-05-19T01:04:09.518Z,100797.16
2023-05-19T01:04:21.486Z,100799.84
2023-05-19T01:04:34.695Z,100794.47
2023-05-19T01:04:47.145Z,100790.13
2023-05-19T01:05:00.157Z,100797.16
2023-05-19T01:05:13.225Z,100787.44
2023-05-19T01:05:25.608Z,100790.13
2023-05-19T01:05:39.150Z,100800.00
2023-05-19T01:05:51.028Z,100800.00
2023-05-19T01:06:03.424Z,100798.97
2023-05-19T01:06:15.633Z,100797.31
2023-05-19T01:06:27.606Z,100790.94
2023-05-19T01:06:39.522Z,100794.66
2023-05-19T01:06:51.651Z,100801.66
2023-05-19T01:07:05.644Z,100802.69
2023-05-19T01:07:17.738Z,100800.00
2023-05-19T01:07:30.137Z,100799.19
2023-05-19T01:07:42.809Z,100794.66
2023-05-19T01:07:55.597Z,100794.66
2023-05-19T01:08:07.755Z,100793.81
2023-05-19T01:08:20.083Z,100791.16
2023-05-19T01:08:32.639Z,100795.47
2023-05-19T01:08:45.235Z,100800.00
2023-05-19T01:08:57.282Z,100789.28
2023-05-19T01:09:09.155Z,100793.63
2023-05-19T01:09:21.450Z,100796.31
2023-05-19T01:09:33.666Z,100795.31
2023-05-19T01:09:47.357Z,100797.31
2023-05-19T01:09:59.136Z,100797.16
2023-05-19T01:10:11.139Z,100793.63
2023-05-19T01:10:22.973Z,100792.63
2023-05-19T01:10:34.928Z,100792.78
2023-05-19T01:10:46.754Z,100804.16
2023-05-19T01:10:58.627Z,100790.78
2023-05-19T01:11:10.511Z,100795.31
2023-05-19T01:11:22.434Z,100790.78
2023-05-19T01:11:34.172Z,100791.59
2023-05-19T01:11:45.958Z,100788.91
2023-05-19T01:11:57.811Z,100794.28
2023-05-19T01:12:09.824Z,100796.94
2023-05-19T01:12:21.761Z,100788.91
2023-05-19T01:12:34.082Z,100793.28
2023-05-19T01:12:47.806Z,100787.09
2023-05-19T01:13:00.261Z,100786.25
2023-05-19T01:13:12.176Z,100792.44
2023-05-19T01:13:24.443Z,100796.78
2023-05-19T01:13:37.182Z,100799.44
2023-05-19T01:13:50.751Z,100795.94
2023-05-19T01:14:02.690Z,100794.09
2023-05-19T01:14:15.014Z,100796.13
2023-05-19T01:14:29.899Z,100792.44
2023-05-19T01:14:42.075Z,100792.44
2023-05-19T01:14:53.969Z,100794.09
2023-05-19T01:15:07.243Z,100796.78
2023-05-19T01:15:19.944Z,100794.09
2023-05-19T01:15:36.319Z,100795.94
2023-05-19T01:15:59.773Z,100790.59
2023-05-19T01:16:16.051Z,100795.94
2023-05-19T01:16:31.550Z,100796.94
2023-05-19T01:16:50.674Z,100797.81
2023-05-19T01:17:07.724Z,100800.28
2023-05-19T01:17:28.643Z,100795.13
2023-05-19T01:17:48.218Z,100802.13
2023-05-19T01:18:05.213Z,100796.78
2023-05-19T01:18:25.408Z,100793.28
2023-05-19T01:18:44.003Z,100792.44
2023-05-19T01:19:01.689Z,100797.16
2023-05-19T01:19:31.577Z,100801.31
2023-05-19T01:19:55.963Z,100796.94
2023-05-19T01:20:16.589Z,100801.31
2023-05-19T01:20:38.580Z,100804.97
2023-05-19T01:20:58.675Z,100800.47
2023-05-19T01:21:37.732Z,100796.13
2023-05-19T01:22:23.226Z,100798.81
2023-05-19T01:23:02.140Z,100801.47
2023-05-19T01:23:33.665Z,100801.47
2023-05-19T01:23:55.409Z,100801.47
2023-05-19T01:24:23.379Z,100798.81
2023-05-19T01:25:25.938Z,100804.16
2023-05-19T01:26:08.789Z,100803.16
2023-05-19T01:27:01.584Z,100804.81
2023-05-19T01:27:39.375Z,100801.13
2023-05-19T01:28:24.556Z,100802.94
2023-05-19T01:28:54.779Z,100801.94
2023-05-19T01:29:28.057Z,100801.94
2023-05-19T01:30:00.227Z,100798.44
2023-05-19T01:30:25.764Z,100802.94
2023-05-19T01:30:41.032Z,100801.31
2023-05-19T01:30:54.481Z,100805.84
2023-05-19T01:31:07.529Z,100801.75
2023-05-19T01:31:22.849Z,100801.13
2023-05-19T01:31:36.114Z,100798.44
2023-05-19T01:31:49.098Z,100802.78
2023-05-19T01:32:04.654Z,100799.44
2023-05-19T01:32:20.875Z,100798.44
2023-05-19T01:32:34.799Z,100801.94
2023-05-19T01:32:48.664Z,100803.81
2023-05-19T01:33:02.807Z,100797.41
2023-05-19T01:33:15.395Z,100799.28
2023-05-19T01:33:30.707Z,100805.44
2023-05-19T01:33:43.937Z,100801.94
2023-05-19T01:33:57.262Z,100795.56
2023-05-19T01:34:12.214Z,100799.28
2023-05-19T01:34:26.656Z,100799.28
2023-05-19T01:34:43.852Z,100801.94
2023-05-19T01:34:57.127Z,100801.94
2023-05-19T01:35:10.234Z,100803.81
2023-05-19T01:35:23.922Z,100794.75
2023-05-19T01:35:37.684Z,100804.63
2023-05-19T01:35:50.627Z,100797.59
2023-05-19T01:36:05.646Z,100803.81
2023-05-19T01:36:19.870Z,100796.78
2023-05-19T01:36:33.159Z,100798.44
2023-05-19T01:36:46.615Z,100795.94
2023-05-19T01:37:00.760Z,100794.09
2023-05-19T01:37:14.887Z,100795.13
2023-05-19T01:37:27.320Z,100798.63
2023-05-19T01:37:40.497Z,100802.13
2023-05-19T01:37:57.337Z,100796.78
2023-05-19T01:38:10.485Z,100801.31
2023-05-19T01:38:24.318Z,100796.78
2023-05-19T01:38:38.626Z,100793.28
2023-05-19T01:38:52.149Z,100798.81
2023-05-19T01:39:04.555Z,100796.13
2023-05-19T01:39:16.698Z,100801.31
2023-05-19T01:39:28.647Z,100796.78
2023-05-19T01:39:41.700Z,100789.78
2023-05-19T01:39:54.382Z,100795.94
2023-05-19T01:40:08.336Z,100793.28
2023-05-19T01:40:22.774Z,100793.28
2023-05-19T01:40:38.176Z,100795.13
2023-05-19T01:40:52.161Z,100799.44
2023-05-19T01:41:06.162Z,100793.44
2023-05-19T01:41:21.561Z,100792.44
2023-05-19T01:41:34.235Z,100793.28
2023-05-19T01:41:47.511Z,100793.28
2023-05-19T01:42:01.635Z,100791.41
2023-05-19T01:42:15.167Z,100793.28
2023-05-19T01:42:27.679Z,100793.28
2023-05-19T01:42:40.730Z,100787.28
2023-05-19T01:42:57.444Z,100793.44
2023-05-19T01:43:12.552Z,100792.63
2023-05-19T01:43:26.481Z,100792.44
2023-05-19T01:43:39.010Z,100791.59
2023-05-19T01:43:51.219Z,100793.44
2023-05-19T01:44:03.284Z,100788.09
2023-05-19T01:44:15.559Z,100789.94
2023-05-19T01:44:29.633Z,100789.94
2023-05-19T01:44:42.178Z,100787.28
2023-05-19T01:44:54.722Z,100790.94
2023-05-19T01:45:08.178Z,100786.63
2023-05-19T01:45:22.204Z,100786.44
2023-05-19T01:45:34.671Z,100788.47
2023-05-19T01:45:47.192Z,100788.28
2023-05-19T01:46:00.506Z,100787.44
2023-05-19T01:46:12.948Z,100789.28
2023-05-19T01:46:25.371Z,100788.47
2023-05-19T01:46:38.656Z,100783.94
2023-05-19T01:46:51.392Z,100783.94
2023-05-19T01:47:04.001Z,100789.28
2023-05-19T01:47:16.160Z,100793.63
2023-05-19T01:47:28.244Z,100782.91
2023-05-19T01:47:43.473Z,100787.44
2023-05-19T01:47:57.761Z,100793.63
2023-05-19T01:48:11.280Z,100785.81
2023-05-19T01:48:24.707Z,100786.63
2023-05-19T01:48:37.085Z,100791.97
2023-05-19T01:48:49.125Z,100783.94
2023-05-19T01:49:01.914Z,100783.13
2023-05-19T01:49:13.911Z,100789.28
2023-05-19T01:49:25.933Z,100787.66
2023-05-19T01:49:39.125Z,100794.47
2023-05-19T01:49:51.079Z,100792.78
2023-05-19T01:50:03.311Z,100789.28
2023-05-19T01:50:15.241Z,100790.94
2023-05-19T01:50:28.719Z,100779.78
2023-05-19T01:50:40.939Z,100790.13
2023-05-19T01:50:52.817Z,100788.28
2023-05-19T01:51:05.136Z,100791.97
2023-05-19T01:51:16.986Z,100791.97
2023-05-19T01:51:28.978Z,100786.63
2023-05-19T01:51:41.160Z,100794.66
2023-05-19T01:51:53.355Z,100791.97
2023-05-19T01:52:07.531Z,100788.47
2023-05-19T01:52:19.432Z,100786.81
2023-05-19T01:52:31.210Z,100790.34
2023-05-19T01:52:43.205Z,100790.47
2023-05-19T01:52:55.322Z,100796.50
2023-05-19T01:53:07.231Z,100793.81
2023-05-19T01:53:19.701Z,100787.78
2023-05-19T01:53:31.804Z,100789.28
2023-05-19T01:53:45.436Z,100794.81
2023-05-19T01:53:57.295Z,100795.81
2023-05-19T01:54:09.161Z,100788.66
2023-05-19T01:54:20.965Z,100793.00
2023-05-19T01:54:32.894Z,100794.66
2023-05-19T01:54:44.992Z,100787.66
2023-05-19T01:54:58.439Z,100797.50
2023-05-19T01:55:10.682Z,100791.31
2023-05-19T01:55:23.500Z,100793.00
2023-05-19T01:55:40.603Z,100785.97
2023-05-19T01:55:55.523Z,100790.34
2023-05-19T01:56:07.863Z,100791.16
2023-05-19T01:56:28.397Z,100784.97
2023-05-19T01:56:46.682Z,100788.28
2023-05-19T01:57:08.505Z,100791.81
2023-05-19T01:57:31.271Z,100789.94
2023-05-19T01:57:52.100Z,100786.81
2023-05-19T01:58:13.758Z,100789.13
2023-05-19T01:58:35.278Z,100785.41
2023-05-19T01:58:48.540Z,100792.63
2023-05-19T01:59:07.427Z,100787.28
2023-05-19T01:59:28.009Z,100789.94
2023-05-19T01:59:50.779Z,100785.59
2023-05-19T02:00:10.086Z,100791.81
2023-05-19T02:00:35.154Z,100790.94
2023-05-19T02:00:53.018Z,100794.66
2023-05-19T02:01:14.858Z,100796.31
2023-05-19T02:01:34.051Z,100788.47
2023-05-19T02:01:53.345Z,100791.81
2023-05-19T02:02:12.710Z,100789.13
2023-05-19T02:02:30.439Z,100791.81
2023-05-19T02:03:00.132Z,100791.81
2023-05-19T02:03:26.498Z,100787.28
2023-05-19T02:03:51.542Z,100786.44
2023-05-19T02:04:17.204Z,100791.81
2023-05-19T02:04:36.059Z,100789.94
2023-05-19T02:04:55.854Z,100788.91
2023-05-19T02:05:18.589Z,100789.94
2023-05-19T02:05:38.366Z,100800.66
2023-05-19T02:05:55.589Z,100788.91
2023-05-19T02:06:19.148Z,100788.91
2023-05-19T02:06:41.713Z,100795.94
2023-05-19T02:07:03.585Z,100789.78
2023-05-19T02:07:23.999Z,100792.44
2023-05-19T02:07:44.307Z,100794.28
2023-05-19T02:08:04.225Z,100791.81
2023-05-19T02:08:22.259Z,100796.94
2023-05-19T02:08:42.823Z,100793.44
2023-05-19T02:09:02.337Z,100797.81
2023-05-19T02:09:18.694Z,100794.28
2023-05-19T02:09:38.688Z,100794.28
2023-05-19T02:09:54.633Z,100788.09
2023-05-19T02:10:10.792Z,100795.31
2023-05-19T02:10:29.026Z,100795.31
2023-05-19T02:10:45.542Z,100794.28
2023-05-19T02:11:04.895Z,100788.91
2023-05-19T02:11:25.955Z,100790.78
2023-05-19T02:11:42.024Z,100795.31
2023-05-19T02:11:58.669Z,100789.13
2023-05-19T02:12:19.112Z,100795.31
2023-05-19T02:12:34.478Z,100792.63
2023-05-19T02:12:48.617Z,100794.47
2023-05-19T02:13:04.643Z,100798.97
2023-05-19T02:13:18.212Z,100795.47
2023-05-19T02:13:34.386Z,100791.97
2023-05-19T02:13:50.335Z,100797.31
2023-05-19T02:14:06.742Z,100804.31
2023-05-19T02:14:21.378Z,100794.66
2023-05-19T02:14:39.060Z,100798.16
2023-05-19T02:14:58.242Z,100800.00
2023-05-19T02:15:14.455Z,100805.34
2023-05-19T02:15:31.881Z,100798.16
2023-05-19T02:15:45.340Z,100793.81
2023-05-19T02:16:03.490Z,100800.00
2023-05-19T02:16:17.218Z,100792.16
2023-05-19T02:16:29.700Z,100794.66
2023-05-19T02:16:45.925Z,100799.34
2023-05-19T02:16:58.098Z,100802.84
2023-05-19T02:17:11.654Z,100801.84
2023-05-19T02:17:27.269Z,100793.16
2023-05-19T02:17:41.705Z,100794.81
2023-05-19T02:17:55.855Z,100794.81
2023-05-19T02:18:10.306Z,100796.69
2023-05-19T02:18:23.219Z,100794.16
2023-05-19T02:18:36.148Z,100791.31
2023-05-19T02:18:48.042Z,100794.34
2023-05-19T02:19:00.044Z,100793.16
2023-05-19T02:19:21.033Z,100795.81
2023-05-19T02:19:35.325Z,100801.19
2023-05-19T02:19:47.444Z,100791.47
2023-05-19T02:19:59.925Z,100795.00
2023-05-19T02:20:12.061Z,100792.31
2023-05-19T02:20:24.198Z,100792.31
2023-05-19T02:20:36.164Z,100796.81
2023-05-19T02:20:47.977Z,100794.16
2023-05-19T02:20:59.822Z,100794.16
2023-05-19T02:21:11.695Z,100797.69
2023-05-19T02:21:23.489Z,100796.81
2023-05-19T02:21:35.351Z,100799.50
2023-05-19T02:21:47.187Z,100796.00
2023-05-19T02:21:59.268Z,100791.69
2023-05-19T02:22:11.316Z,100790.66
2023-05-19T02:22:23.086Z,100793.31
2023-05-19T02:22:35.525Z,100790.66
2023-05-19T02:22:47.684Z,100793.31
2023-05-19T02:22:59.502Z,100798.69
2023-05-19T02:23:11.301Z,100798.69
2023-05-19T02:23:23.158Z,100797.03
2023-05-19T02:23:35.049Z,100791.69
2023-05-19T02:23:47.309Z,100792.50
2023-05-19T02:23:59.136Z,100792.50
2023-05-19T02:24:10.954Z,100798.69
2023-05-19T02:24:23.443Z,100795.19
2023-05-19T02:24:35.385Z,100797.84
2023-05-19T02:24:47.201Z,100799.69
2023-05-19T02:24:59.027Z,100790.84
2023-05-19T02:25:11.434Z,100788.19
2023-05-19T02:25:23.311Z,100793.53
2023-05-19T02:25:35.138Z,100793.53
2023-05-19T02:25:46.962Z,100797.19
2023-05-19T02:25:58.937Z,100792.66
2023-05-19T02:26:10.813Z,100797.19
2023-05-19T02:26:22.589Z,100791.69
2023-05-19T02:26:34.522Z,100795.34
2023-05-19T02:26:49.620Z,100788.34
2023-05-19T02:27:01.464Z,100792.66
2023-05-19T02:27:13.521Z,100797.19
2023-05-19T02:27:25.520Z,100795.34
2023-05-19T02:27:38.736Z,100797.19
2023-05-19T02:27:52.379Z,100797.19
2023-05-19T02:28:04.544Z,100797.19
2023-05-19T02:28:16.720Z,100794.53
2023-05-19T02:28:28.632Z,100795.34
2023-05-19T02:28:40.534Z,100793.69
2023-05-19T02:28:52.406Z,100794.53
2023-05-19T02:29:04.296Z,100799.88
2023-05-19T02:29:16.112Z,100791.84
2023-05-19T02:29:28.499Z,100795.34
2023-05-19T02:29:40.367Z,100794.53
2023-05-19T02:29:52.517Z,100792.66
2023-05-19T02:30:04.870Z,100793.69
2023-05-19T02:30:16.838Z,100800.69
2023-05-19T02:30:30.163Z,100796.19
2023-05-19T02:30:44.714Z,100794.53
2023-05-19T02:30:56.636Z,100801.56
2023-05-19T02:31:08.409Z,100795.34
2023-05-19T02:31:20.477Z,100795.34
2023-05-19T02:31:32.466Z,100797.19
2023-05-19T02:31:44.537Z,100795.34
2023-05-19T02:31:56.666Z,100792.66
2023-05-19T02:32:08.689Z,100799.88
2023-05-19T02:32:21.015Z,100802.72
2023-05-19T02:32:33.180Z,100793.06
2023-05-19T02:32:45.114Z,100801.72
2023-05-19T02:32:57.104Z,100799.06
2023-05-19T02:33:08.971Z,100803.59
2023-05-19T02:33:20.781Z,100795.72
2023-05-19T02:33:32.631Z,100797.38
2023-05-19T02:33:44.526Z,100791.19
2023-05-19T02:33:56.456Z,100793.69
2023-05-19T02:34:08.369Z,100793.69
2023-05-19T02:34:21.831Z,100790.38
2023-05-19T02:34:33.676Z,100792.88
2023-05-19T02:34:45.678Z,100792.22
2023-05-19T02:34:58.187Z,100794.69
2023-05-19T02:35:10.316Z,100788.53
2023-05-19T02:35:22.718Z,100793.06
2023-05-19T02:35:34.652Z,100791.41
2023-05-19T02:35:46.507Z,100798.41
2023-05-19T02:35:59.780Z,100794.91
2023-05-19T02:36:11.639Z,100793.22
2023-05-19T02:36:23.437Z,100789.72
2023-05-19T02:36:36.516Z,100790.56
2023-05-19T02:36:48.639Z,100796.94
2023-05-19T02:37:00.694Z,100789.47
2023-05-19T02:37:12.956Z,100791.59
2023-05-19T02:37:24.927Z,100788.91
2023-05-19T02:37:36.802Z,100788.09
2023-05-19T02:37:48.727Z,100795.25
2023-05-19T02:38:00.607Z,100792.56
2023-05-19T02:38:12.557Z,100794.25
2023-05-19T02:38:24.465Z,100789.06
2023-05-19T02:38:38.009Z,100789.91
2023-05-19T02:38:49.757Z,100791.09
2023-05-19T02:39:01.708Z,100785.75
2023-05-19T02:39:13.880Z,100785.75